Chiba, Japan
Current Conditions -  °F | °C
As of 7:30 PM on Thursday 27 Nov 2014 (Local Time) from RJAA Reporting Station
Light Fog Light Fog  
Wind Chill: 55°   Ceiling: Unl
Heat Index: 55°   Visibility: 6mi
Dew Point: 48°   Wind: 6mph
Humidity: 77%   Direction: 50°NE
Pressure: 30.21"   Gusts: NA
Location:  35.61°N, 140.11°E
Report Text: RJAA 271030Z 05005KT 010V080 9999 MIFG FEW025 SCT/// 13/09 Q1023 NOSIG RMK 1CU025 A3023
Loading
Personal Weather Stations






























Interactive Weather Map New forecast layout! Learn more

10-Day Weather Forecast

Advertisements
Track Severe Weather on mobile